Terminal Aerodrome Forecast
Issued by NWS Charleston, WV

Current Version | Previous Version | Text Only | Print | Product List | Glossary Off
Versions: 1 2 3 4 5 6 7 8 9 10 11 12 13 14 15 16 17 18 19 20

000
FTUS41 KRLX 210200 AAA
TAFHTS
TAF AMD
KHTS 210255Z 2103/2124 00000KT P6SM SCT025 BKN050
     FM210600 00000KT P6SM BKN015
     FM211200 00000KT P6SM BKN010
     FM211800 VRB03KT P6SM BKN015
     FM212100 VRB03KT P6SM SCT025=

USA.gov is the U.S. government's official web portal to all federal, state and local government web resources and services.